Time;durP1;ratioP1;P1;durP2;ratioP2;P2;SDS_P1;SDS_P2;PMS_P1;PMS_P2;Temp;Humidity;BMP_temperature;BMP_pressure;BME280_temperature;BME280_humidity;BME280_pressure;Samples;Min_cycle;Max_cycle;Signal;HPM_P1;HPM_P2
2021/03/28 00:00:47;;;;;;;6.15;2.10;;;;;;;;;;5083657;28;20128;-67
2021/03/28 00:03:18;;;;;;;4.32;1.80;;;;;;;;;;5085200;28;20052;-67
2021/03/28 00:05:46;;;;;;;7.80;2.30;;;;;;;;;;5086752;28;20069;-68
2021/03/28 00:08:18;;;;;;;4.80;1.75;;;;;;;;;;5087713;28;20320;-68
2021/03/28 00:10:48;;;;;;;6.13;2.10;;;;;;;;;;5087083;28;20051;-67
2021/03/28 00:13:19;;;;;;;7.30;2.22;;;;;;;;;;5087273;28;20048;-67
2021/03/28 00:15:47;;;;;;;5.18;1.95;;;;;;;;;;5087159;28;20087;-67
2021/03/28 00:18:22;;;;;;;7.78;1.90;;;;;;;;;;5086684;28;20052;-68
2021/03/28 00:20:51;;;;;;;7.20;1.95;;;;;;;;;;5086886;28;20560;-68
2021/03/28 00:23:23;;;;;;;6.45;1.98;;;;;;;;;;5087803;28;20341;-68
2021/03/28 00:25:54;;;;;;;3.10;1.52;;;;;;;;;;5095737;28;20135;-67
2021/03/28 00:28:33;;;;;;;9.63;2.20;;;;;;;;;;5087286;28;21610;-67
2021/03/28 00:31:14;;;;;;;2.92;1.70;;;;;;;;;;5087324;28;20059;-67
2021/03/28 00:33:44;;;;;;;5.80;2.05;;;;;;;;;;5084049;28;20186;-68
2021/03/28 00:36:13;;;;;;;6.82;1.83;;;;;;;;;;5087149;28;20040;-68
2021/03/28 00:38:52;;;;;;;6.70;1.70;;;;;;;;;;5085686;28;20563;-68
2021/03/28 00:41:21;;;;;;;7.05;1.70;;;;;;;;;;5091795;28;20070;-68
2021/03/28 00:43:50;;;;;;;2.70;1.52;;;;;;;;;;5081767;28;20067;-67
2021/03/28 00:46:34;;;;;;;5.85;1.88;;;;;;;;;;5078482;28;20048;-67
2021/03/28 00:49:10;;;;;;;4.95;1.83;;;;;;;;;;5082155;28;20079;-67
2021/03/28 00:51:43;;;;;;;8.68;3.67;;;;;;;;;;5085621;28;20068;-68
2021/03/28 00:54:12;;;;;;;4.28;1.92;;;;;;;;;;5087106;28;20470;-68
2021/03/28 00:56:41;;;;;;;4.95;1.80;;;;;;;;;;5085454;28;20050;-67
2021/03/28 00:59:15;;;;;;;7.57;1.65;;;;;;;;;;5090113;28;20138;-67
2021/03/28 01:01:55;;;;;;;7.60;1.75;;;;;;;;;;5085872;28;20392;-67
2021/03/28 01:04:47;;;;;;;5.25;2.17;;;;;;;;;;5087868;22;20107;-71
2021/03/28 01:07:18;;;;;;;4.43;1.50;;;;;;;;;;5073334;28;20106;-69
2021/03/28 01:09:58;;;;;;;5.20;1.55;;;;;;;;;;5073085;28;20461;-68
2021/03/28 01:12:48;;;;;;;4.43;1.83;;;;;;;;;;5074035;28;20080;-69
2021/03/28 01:15:39;;;;;;;7.40;1.83;;;;;;;;;;5072999;28;20045;-68
2021/03/28 01:18:08;;;;;;;7.10;1.70;;;;;;;;;;5073029;28;20084;-70
2021/03/28 01:20:42;;;;;;;4.72;1.33;;;;;;;;;;5073297;28;20098;-69
2021/03/28 01:23:27;;;;;;;6.32;1.70;;;;;;;;;;5072930;28;20429;-69
2021/03/28 01:26:18;;;;;;;8.25;1.60;;;;;;;;;;5073770;28;20106;-72
2021/03/28 01:28:55;;;;;;;5.97;1.90;;;;;;;;;;5073574;28;20066;-69
2021/03/28 01:31:26;;;;;;;4.53;1.70;;;;;;;;;;5072441;28;20048;-71
2021/03/28 01:33:56;;;;;;;4.90;1.50;;;;;;;;;;5073492;28;20055;-72
2021/03/28 01:36:31;;;;;;;4.20;1.50;;;;;;;;;;5073228;28;20056;-71
2021/03/28 01:39:01;;;;;;;4.18;1.20;;;;;;;;;;5072864;28;20114;-70
2021/03/28 01:41:30;;;;;;;6.22;1.67;;;;;;;;;;5073297;28;20068;-67
2021/03/28 01:44:02;;;;;;;6.97;1.70;;;;;;;;;;5073104;28;20045;-69
2021/03/28 01:46:34;;;;;;;5.25;1.50;;;;;;;;;;5071766;28;20448;-67
2021/03/28 01:49:09;;;;;;;6.43;1.65;;;;;;;;;;5073294;28;20056;-67
2021/03/28 01:51:48;;;;;;;6.32;1.58;;;;;;;;;;5072360;28;20092;-70
2021/03/28 01:54:17;;;;;;;4.85;1.50;;;;;;;;;;5073072;28;20092;-69
2021/03/28 01:56:51;;;;;;;4.53;1.40;;;;;;;;;;5072687;28;20139;-73
2021/03/28 01:59:37;;;;;;;5.97;1.60;;;;;;;;;;5071553;28;20045;-70
2021/03/28 02:02:09;;;;;;;8.15;1.45;;;;;;;;;;5073130;28;20086;-69
2021/03/28 02:04:47;;;;;;;5.93;1.90;;;;;;;;;;5084298;28;20426;-68
2021/03/28 02:07:26;;;;;;;4.10;1.40;;;;;;;;;;5088536;28;20056;-68
2021/03/28 02:09:57;;;;;;;7.13;1.55;;;;;;;;;;5066406;28;20083;-70
2021/03/28 02:12:34;;;;;;;4.38;1.67;;;;;;;;;;5073041;28;20131;-74
2021/03/28 02:15:26;;;;;;;6.47;1.50;;;;;;;;;;5076469;28;20046;-70
2021/03/28 02:18:02;;;;;;;3.83;1.60;;;;;;;;;;5083225;28;20040;-71
2021/03/28 02:20:37;;;;;;;4.57;1.70;;;;;;;;;;5084684;28;20052;-73
2021/03/28 02:23:11;;;;;;;4.97;1.23;;;;;;;;;;5087030;28;20044;-68
2021/03/28 02:25:42;;;;;;;3.65;1.38;;;;;;;;;;5088162;28;20195;-69
2021/03/28 02:28:12;;;;;;;7.82;1.50;;;;;;;;;;5084118;28;20082;-69
2021/03/28 02:30:48;;;;;;;6.22;1.55;;;;;;;;;;5083629;28;20068;-71
2021/03/28 02:33:19;;;;;;;2.90;1.38;;;;;;;;;;5084788;28;20127;-69
2021/03/28 02:35:50;;;;;;;4.38;1.40;;;;;;;;;;5083625;28;20044;-69
2021/03/28 02:38:22;;;;;;;6.20;1.40;;;;;;;;;;5084379;28;20139;-69
2021/03/28 02:40:52;;;;;;;4.68;1.63;;;;;;;;;;5078060;28;20045;-69
2021/03/28 02:43:31;;;;;;;5.50;1.73;;;;;;;;;;5076791;28;20048;-69
2021/03/28 02:46:11;;;;;;;5.25;1.65;;;;;;;;;;5084732;28;20056;-73
2021/03/28 02:48:45;;;;;;;4.00;1.35;;;;;;;;;;5084148;28;20072;-69
2021/03/28 02:51:31;;;;;;;3.85;1.20;;;;;;;;;;5084415;28;20110;-70
2021/03/28 02:54:06;;;;;;;6.95;1.40;;;;;;;;;;5084474;28;20130;-70
2021/03/28 02:56:52;;;;;;;5.63;1.50;;;;;;;;;;5081320;28;20135;-69
2021/03/28 02:59:25;;;;;;;10.75;1.60;;;;;;;;;;5077067;28;20392;-70
2021/03/28 03:02:12;;;;;;;5.75;1.38;;;;;;;;;;5084644;28;20519;-68
2021/03/28 03:05:06;;;;;;;4.97;1.27;;;;;;;;;;5070315;28;20223;-69
2021/03/28 03:07:42;;;;;;;9.30;1.70;;;;;;;;;;5025141;28;20638;-68
2021/03/28 03:10:24;;;;;;;4.25;1.50;;;;;;;;;;5072933;28;20048;-67
2021/03/28 03:12:57;;;;;;;6.68;1.90;;;;;;;;;;5064333;28;20076;-69
2021/03/28 03:15:25;;;;;;;6.40;1.55;;;;;;;;;;5077873;28;20603;-71
2021/03/28 03:18:13;;;;;;;2.88;1.48;;;;;;;;;;5084269;28;20538;-70
2021/03/28 03:21:16;;;;;;;4.60;1.50;;;;;;;;;;5084461;28;20435;-73
2021/03/28 03:24:01;;;;;;;2.90;1.05;;;;;;;;;;5083805;28;20282;-70
2021/03/28 03:26:45;;;;;;;4.55;1.90;;;;;;;;;;5069777;28;20056;-68
2021/03/28 03:29:37;;;;;;;5.07;1.65;;;;;;;;;;5086015;28;20098;-70
2021/03/28 03:32:09;;;;;;;7.47;1.70;;;;;;;;;;5096234;28;20544;-68
2021/03/28 03:34:51;;;;;;;6.68;1.70;;;;;;;;;;5090335;28;20545;-69
2021/03/28 03:37:26;;;;;;;4.97;1.50;;;;;;;;;;5066972;28;20151;-68
2021/03/28 03:40:07;;;;;;;3.85;1.65;;;;;;;;;;5087244;28;20529;-73
2021/03/28 03:42:53;;;;;;;5.13;1.75;;;;;;;;;;5087617;28;20131;-69
2021/03/28 03:45:32;;;;;;;9.45;1.83;;;;;;;;;;5087746;28;20051;-70
2021/03/28 03:48:02;;;;;;;6.50;1.58;;;;;;;;;;5088280;28;20132;-68
2021/03/28 03:50:47;;;;;;;10.27;2.15;;;;;;;;;;5087399;28;20141;-71
2021/03/28 03:53:18;;;;;;;10.93;2.40;;;;;;;;;;5069257;28;20680;-71
2021/03/28 03:55:55;;;;;;;6.97;2.42;;;;;;;;;;5086567;28;20281;-68
2021/03/28 03:58:28;;;;;;;7.88;2.60;;;;;;;;;;5075307;28;20163;-68
2021/03/28 04:01:02;;;;;;;10.23;3.22;;;;;;;;;;5087785;28;20139;-73
2021/03/28 04:03:32;;;;;;;7.97;2.25;;;;;;;;;;5086773;28;20055;-73
2021/03/28 04:06:07;;;;;;;4.40;1.60;;;;;;;;;;5097123;28;20047;-69
2021/03/28 04:08:53;;;;;;;4.30;1.52;;;;;;;;;;5089541;28;20076;-69
2021/03/28 04:11:28;;;;;;;3.70;1.67;;;;;;;;;;5085535;28;20063;-75
2021/03/28 04:14:07;;;;;;;8.50;1.55;;;;;;;;;;5083746;28;20052;-71
2021/03/28 04:16:37;;;;;;;4.03;1.67;;;;;;;;;;5078174;28;20052;-72
2021/03/28 04:19:18;;;;;;;4.45;1.40;;;;;;;;;;5087242;28;20059;-74
2021/03/28 04:21:58;;;;;;;3.30;1.33;;;;;;;;;;5087769;28;20458;-70
2021/03/28 04:24:30;;;;;;;9.38;1.63;;;;;;;;;;5077443;28;20123;-74
2021/03/28 04:27:08;;;;;;;5.53;1.67;;;;;;;;;;5086255;28;20779;-72
2021/03/28 04:29:37;;;;;;;3.90;1.52;;;;;;;;;;5052311;28;20049;-71
2021/03/28 04:32:10;;;;;;;3.42;1.20;;;;;;;;;;5085632;28;20511;-72
2021/03/28 04:34:42;;;;;;;4.13;1.65;;;;;;;;;;5086180;28;20993;-70
2021/03/28 04:37:17;;;;;;;8.27;1.60;;;;;;;;;;5086754;28;20132;-71
2021/03/28 04:39:58;;;;;;;7.70;1.83;;;;;;;;;;5086201;28;20066;-69
2021/03/28 04:42:40;;;;;;;8.43;1.83;;;;;;;;;;5086292;28;20074;-71
2021/03/28 04:45:17;;;;;;;6.93;1.77;;;;;;;;;;5085987;28;20109;-74
2021/03/28 04:48:02;;;;;;;4.78;1.40;;;;;;;;;;5066829;28;20605;-72
2021/03/28 04:50:47;;;;;;;5.72;2.00;;;;;;;;;;5079356;28;20139;-73
2021/03/28 04:53:38;;;;;;;3.63;1.58;;;;;;;;;;5066628;28;20121;-70
2021/03/28 04:56:27;;;;;;;8.00;1.70;;;;;;;;;;5082725;28;20139;-70
2021/03/28 04:59:04;;;;;;;4.50;1.70;;;;;;;;;;5080933;28;20151;-73
2021/03/28 05:01:40;;;;;;;2.45;1.30;;;;;;;;;;5086052;28;20056;-69
2021/03/28 05:04:23;;;;;;;7.63;3.03;;;;;;;;;;5086335;28;20452;-71
2021/03/28 05:07:05;;;;;;;7.90;1.95;;;;;;;;;;5085910;28;20393;-71
2021/03/28 05:09:39;;;;;;;5.63;1.60;;;;;;;;;;5049965;28;20055;-70
2021/03/28 05:12:20;;;;;;;5.15;1.63;;;;;;;;;;5086942;28;20050;-69
2021/03/28 05:14:59;;;;;;;3.90;1.77;;;;;;;;;;5096524;28;20075;-69
2021/03/28 05:17:41;;;;;;;6.10;1.73;;;;;;;;;;5086384;28;20119;-69
2021/03/28 05:20:25;;;;;;;4.40;1.63;;;;;;;;;;5085647;28;20048;-70
2021/03/28 05:23:05;;;;;;;5.85;1.70;;;;;;;;;;5086526;28;20048;-71
2021/03/28 05:25:35;;;;;;;4.57;1.20;;;;;;;;;;5094670;28;20231;-72
2021/03/28 05:28:20;;;;;;;3.13;1.40;;;;;;;;;;5085322;28;20403;-68
2021/03/28 05:30:58;;;;;;;4.40;1.75;;;;;;;;;;5077976;28;20551;-70
2021/03/28 05:33:43;;;;;;;5.65;1.88;;;;;;;;;;5084514;28;20572;-71
2021/03/28 05:36:21;;;;;;;2.55;1.35;;;;;;;;;;5068898;28;20044;-69
2021/03/28 05:38:56;;;;;;;5.05;1.58;;;;;;;;;;5083388;28;20043;-70
2021/03/28 05:41:35;;;;;;;6.13;2.10;;;;;;;;;;5082723;28;20044;-70
2021/03/28 05:44:20;;;;;;;5.25;1.70;;;;;;;;;;5085142;28;20163;-69
2021/03/28 05:47:06;;;;;;;4.82;1.52;;;;;;;;;;5086077;28;20078;-71
2021/03/28 05:49:38;;;;;;;6.13;1.23;;;;;;;;;;5049762;28;20556;-69
2021/03/28 05:52:17;;;;;;;3.30;1.40;;;;;;;;;;5080574;28;20044;-72
2021/03/28 05:55:03;;;;;;;5.40;1.63;;;;;;;;;;5084047;28;20101;-73
2021/03/28 05:57:45;;;;;;;3.47;1.52;;;;;;;;;;5084759;28;20136;-71
2021/03/28 06:00:30;;;;;;;5.30;1.42;;;;;;;;;;5080084;28;20048;-69
2021/03/28 06:03:16;;;;;;;6.82;3.30;;;;;;;;;;5048516;28;20535;-71
2021/03/28 06:05:56;;;;;;;5.22;1.20;;;;;;;;;;5100862;28;20078;-69
2021/03/28 06:08:48;;;;;;;3.97;1.58;;;;;;;;;;5084316;28;20533;-70
2021/03/28 06:11:28;;;;;;;4.70;1.77;;;;;;;;;;5085100;28;20121;-68
2021/03/28 06:14:05;;;;;;;4.70;2.72;;;;;;;;;;5084594;28;20497;-72
2021/03/28 06:16:47;;;;;;;3.72;1.40;;;;;;;;;;5084919;28;20142;-68
2021/03/28 06:19:43;;;;;;;4.25;1.52;;;;;;;;;;5082238;28;20076;-69
2021/03/28 06:22:31;;;;;;;4.28;1.63;;;;;;;;;;5049280;28;20131;-69
2021/03/28 06:25:16;;;;;;;7.90;1.60;;;;;;;;;;5045664;28;20127;-69
2021/03/28 06:27:59;;;;;;;4.00;1.42;;;;;;;;;;5085013;28;20121;-74
2021/03/28 06:30:49;;;;;;;6.65;1.45;;;;;;;;;;5065972;28;20132;-69
2021/03/28 06:33:32;;;;;;;6.25;1.77;;;;;;;;;;5081747;28;20080;-73
2021/03/28 06:36:17;;;;;;;4.55;1.63;;;;;;;;;;5085013;28;20040;-71
2021/03/28 06:39:18;;;;;;;6.68;1.77;;;;;;;;;;5091950;28;20040;-71
2021/03/28 06:42:09;;;;;;;4.78;1.60;;;;;;;;;;5080671;28;20040;-70
2021/03/28 06:44:54;;;;;;;3.80;1.80;;;;;;;;;;5074077;28;20472;-72
2021/03/28 06:47:33;;;;;;;3.90;1.40;;;;;;;;;;5082508;28;20048;-76
2021/03/28 06:50:16;;;;;;;3.92;1.55;;;;;;;;;;5066190;28;20094;-70
2021/03/28 06:52:55;;;;;;;5.50;1.60;;;;;;;;;;5081238;28;20564;-72
2021/03/28 06:55:39;;;;;;;7.38;1.92;;;;;;;;;;5083749;28;20233;-72
2021/03/28 06:58:25;;;;;;;5.20;2.20;;;;;;;;;;5074022;28;20071;-71
2021/03/28 07:03:59;;;;;;;5.53;2.20;;;;;;;;;;5130524;27;20423;-70
2021/03/28 07:06:32;;;;;;;3.60;2.20;;;;;;;;;;5115327;28;20124;-70
2021/03/28 07:09:10;;;;;;;7.70;1.73;;;;;;;;;;5085950;27;20091;-71
2021/03/28 07:11:48;;;;;;;4.55;1.75;;;;;;;;;;5081893;28;20441;-71
2021/03/28 07:14:29;;;;;;;5.55;1.83;;;;;;;;;;5069817;28;20240;-72
2021/03/28 07:17:08;;;;;;;4.93;1.73;;;;;;;;;;5079297;28;20063;-70
2021/03/28 07:19:46;;;;;;;8.65;1.88;;;;;;;;;;5111107;28;20055;-71
2021/03/28 07:22:31;;;;;;;7.03;1.90;;;;;;;;;;5094300;28;20102;-69
2021/03/28 07:25:17;;;;;;;5.85;2.47;;;;;;;;;;5092587;28;20075;-68
2021/03/28 07:27:52;;;;;;;3.95;1.48;;;;;;;;;;5098547;27;20056;-72
2021/03/28 07:30:38;;;;;;;5.93;1.70;;;;;;;;;;5084040;28;20089;-73
2021/03/28 07:33:22;;;;;;;4.95;1.63;;;;;;;;;;5100133;28;20087;-72
2021/03/28 07:36:00;;;;;;;3.47;1.50;;;;;;;;;;5101537;28;20121;-72
2021/03/28 07:38:46;;;;;;;10.35;1.75;;;;;;;;;;5090291;28;20095;-72
2021/03/28 07:41:37;;;;;;;5.35;1.48;;;;;;;;;;5094172;28;20123;-72
2021/03/28 07:44:22;;;;;;;5.80;2.40;;;;;;;;;;5095557;28;20703;-73
2021/03/28 07:47:08;;;;;;;6.15;2.05;;;;;;;;;;5093520;28;20044;-73
2021/03/28 07:49:45;;;;;;;8.40;3.95;;;;;;;;;;5105188;28;20050;-72
2021/03/28 07:52:27;;;;;;;9.95;2.80;;;;;;;;;;5091515;28;20134;-72
2021/03/28 07:55:14;;;;;;;8.40;1.70;;;;;;;;;;5098313;28;20047;-72
2021/03/28 07:57:59;;;;;;;7.20;1.85;;;;;;;;;;5082791;28;20412;-74
2021/03/28 08:00:49;;;;;;;7.15;1.65;;;;;;;;;;5094562;28;20175;-73
2021/03/28 08:03:23;;;;;;;5.88;1.73;;;;;;;;;;5080030;28;20118;-74
2021/03/28 08:06:01;;;;;;;9.13;2.25;;;;;;;;;;5087522;28;20075;-72
2021/03/28 08:08:37;;;;;;;6.22;2.17;;;;;;;;;;5078292;28;20071;-72
2021/03/28 08:11:20;;;;;;;12.82;2.28;;;;;;;;;;5078151;28;20054;-72
2021/03/28 08:14:05;;;;;;;6.07;1.67;;;;;;;;;;5080491;28;20056;-73
2021/03/28 08:16:56;;;;;;;6.82;2.20;;;;;;;;;;5071484;28;20052;-73
2021/03/28 08:19:29;;;;;;;7.47;2.25;;;;;;;;;;5049785;28;20137;-71
2021/03/28 08:22:03;;;;;;;5.57;2.15;;;;;;;;;;5072669;28;20108;-72
2021/03/28 08:24:57;;;;;;;8.77;2.40;;;;;;;;;;5086130;28;20159;-73
2021/03/28 08:27:29;;;;;;;9.25;2.00;;;;;;;;;;5076236;28;20138;-74
2021/03/28 08:30:09;;;;;;;5.90;2.03;;;;;;;;;;5091873;28;20195;-73
2021/03/28 08:32:57;;;;;;;6.40;1.90;;;;;;;;;;5086704;28;20075;-72
2021/03/28 08:35:34;;;;;;;10.30;2.80;;;;;;;;;;5056695;28;20532;-73
2021/03/28 08:38:12;;;;;;;7.22;1.67;;;;;;;;;;5086807;28;20106;-73
2021/03/28 08:40:56;;;;;;;4.22;1.83;;;;;;;;;;5083878;28;20119;-74
2021/03/28 08:43:38;;;;;;;7.60;2.05;;;;;;;;;;5072055;28;20458;-73
2021/03/28 08:46:12;;;;;;;9.30;2.00;;;;;;;;;;5090619;28;20298;-72
2021/03/28 08:48:47;;;;;;;16.75;2.15;;;;;;;;;;5104359;28;20743;-72
2021/03/28 08:51:32;;;;;;;5.47;1.70;;;;;;;;;;5099063;28;20133;-72
2021/03/28 08:54:05;;;;;;;10.52;2.00;;;;;;;;;;5085436;28;20128;-63
2021/03/28 08:56:36;;;;;;;9.23;1.92;;;;;;;;;;5085853;28;20446;-62
2021/03/28 08:59:11;;;;;;;9.55;1.92;;;;;;;;;;5098186;28;20051;-62
2021/03/28 09:01:46;;;;;;;8.35;1.92;;;;;;;;;;5084156;28;20240;-62
2021/03/28 09:04:25;;;;;;;4.93;1.75;;;;;;;;;;5069074;28;20052;-62
2021/03/28 09:07:11;;;;;;;6.05;1.85;;;;;;;;;;5081082;28;20112;-62
2021/03/28 09:09:43;;;;;;;12.93;2.35;;;;;;;;;;5077066;28;20172;-62
2021/03/28 09:12:17;;;;;;;5.18;2.05;;;;;;;;;;5067219;28;20044;-62
2021/03/28 09:14:58;;;;;;;4.88;1.90;;;;;;;;;;5081056;28;20052;-62
2021/03/28 09:17:30;;;;;;;7.32;1.70;;;;;;;;;;5066165;28;20052;-62
2021/03/28 09:20:10;;;;;;;9.88;1.98;;;;;;;;;;5086845;28;20059;-62
2021/03/28 09:22:46;;;;;;;6.28;1.95;;;;;;;;;;5091859;28;20175;-62
2021/03/28 09:25:35;;;;;;;5.22;1.50;;;;;;;;;;5077426;28;20083;-62
2021/03/28 09:28:06;;;;;;;6.82;1.75;;;;;;;;;;5068289;28;20485;-61
2021/03/28 09:30:38;;;;;;;4.60;1.55;;;;;;;;;;5084047;28;20055;-62
2021/03/28 09:33:28;;;;;;;6.10;1.60;;;;;;;;;;5098786;28;20510;-62
2021/03/28 09:36:15;;;;;;;4.85;1.67;;;;;;;;;;5081020;28;20082;-62
2021/03/28 09:38:57;;;;;;;4.28;1.15;;;;;;;;;;5082892;28;20050;-62
2021/03/28 09:41:36;;;;;;;6.05;1.40;;;;;;;;;;5065868;28;20176;-62
2021/03/28 09:44:05;;;;;;;5.55;1.70;;;;;;;;;;5080089;28;20130;-62
2021/03/28 09:46:39;;;;;;;5.50;1.52;;;;;;;;;;5088623;28;20214;-62
2021/03/28 09:49:17;;;;;;;9.13;1.50;;;;;;;;;;5089761;28;20557;-62
2021/03/28 09:51:55;;;;;;;5.88;1.42;;;;;;;;;;5088552;27;20138;-62
2021/03/28 09:54:31;;;;;;;7.38;1.77;;;;;;;;;;5088253;28;20452;-63
2021/03/28 09:57:06;;;;;;;4.68;1.50;;;;;;;;;;5088864;27;20062;-62
2021/03/28 09:59:42;;;;;;;5.82;1.73;;;;;;;;;;5098372;27;20385;-63
2021/03/28 10:02:20;;;;;;;4.20;1.38;;;;;;;;;;5083377;28;20163;-62
2021/03/28 10:05:00;;;;;;;3.75;1.20;;;;;;;;;;5091219;28;20040;-62
2021/03/28 10:07:31;;;;;;;4.82;1.27;;;;;;;;;;5079858;28;20052;-62
2021/03/28 10:10:04;;;;;;;5.57;1.27;;;;;;;;;;5090603;28;20135;-63
2021/03/28 10:12:37;;;;;;;6.63;1.50;;;;;;;;;;5082483;28;20524;-62
2021/03/28 10:15:06;;;;;;;10.43;1.67;;;;;;;;;;5085900;28;20048;-63
2021/03/28 10:17:45;;;;;;;3.97;1.52;;;;;;;;;;5071105;28;20126;-64
2021/03/28 10:20:18;;;;;;;6.43;1.65;;;;;;;;;;5073466;28;20103;-64
2021/03/28 10:22:52;;;;;;;8.60;2.05;;;;;;;;;;5076912;28;20391;-63
2021/03/28 10:25:30;;;;;;;7.43;1.52;;;;;;;;;;5063890;28;20453;-63
2021/03/28 10:28:13;;;;;;;7.22;1.70;;;;;;;;;;5061568;28;20076;-63
2021/03/28 10:30:55;;;;;;;4.43;1.45;;;;;;;;;;5072059;28;20104;-63
2021/03/28 10:33:29;;;;;;;5.40;1.40;;;;;;;;;;5073184;28;20055;-63
2021/03/28 10:36:01;;;;;;;3.60;1.40;;;;;;;;;;5076460;28;20044;-63
2021/03/28 10:38:41;;;;;;;5.13;1.50;;;;;;;;;;5065197;28;20055;-64
2021/03/28 10:41:18;;;;;;;5.15;1.63;;;;;;;;;;5071948;28;20051;-63
2021/03/28 10:43:54;;;;;;;6.45;1.40;;;;;;;;;;5078797;28;20344;-64
2021/03/28 10:46:43;;;;;;;3.00;1.65;;;;;;;;;;5076364;28;20471;-63
2021/03/28 10:49:24;;;;;;;5.32;1.45;;;;;;;;;;5080985;28;20134;-62
2021/03/28 10:52:20;;;;;;;5.18;1.35;;;;;;;;;;5074540;28;20404;-62
2021/03/28 10:55:07;;;;;;;6.03;1.63;;;;;;;;;;5076380;28;20205;-62
2021/03/28 10:57:59;;;;;;;7.70;1.70;;;;;;;;;;5078486;28;20134;-62
2021/03/28 11:00:53;;;;;;;5.05;1.90;;;;;;;;;;5078600;28;20521;-62
2021/03/28 11:03:36;;;;;;;4.55;1.40;;;;;;;;;;5018655;28;20252;-64
2021/03/28 11:06:24;;;;;;;5.30;1.40;;;;;;;;;;5074783;28;20040;-63
2021/03/28 11:08:59;;;;;;;10.02;1.90;;;;;;;;;;5083972;28;20105;-63
2021/03/28 11:11:40;;;;;;;5.85;1.77;;;;;;;;;;5084036;28;20086;-64
2021/03/28 11:14:41;;;;;;;5.70;1.27;;;;;;;;;;5079095;28;20051;-64
2021/03/28 11:17:20;;;;;;;4.25;1.13;;;;;;;;;;5010243;28;20061;-64
2021/03/28 11:20:05;;;;;;;6.65;1.55;;;;;;;;;;5007466;28;20057;-64
2021/03/28 11:22:43;;;;;;;4.97;1.38;;;;;;;;;;5053231;28;20063;-64
2021/03/28 11:25:18;;;;;;;5.72;1.33;;;;;;;;;;5084081;28;20056;-64
2021/03/28 11:28:06;;;;;;;4.72;1.35;;;;;;;;;;5076856;28;20069;-64
2021/03/28 11:30:35;;;;;;;8.27;1.38;;;;;;;;;;5079176;28;20044;-64
2021/03/28 11:33:11;;;;;;;6.72;2.15;;;;;;;;;;5068355;28;20427;-63
2021/03/28 11:35:39;;;;;;;;;;;;;;;;;;5077096;28;20055;-64
2021/03/28 11:38:26;;;;;;;5.60;1.73;;;;;;;;;;5076303;28;20374;-63
2021/03/28 11:41:15;;;;;;;5.75;1.58;;;;;;;;;;5070815;28;20044;-63
2021/03/28 11:43:44;;;;;;;6.32;1.48;;;;;;;;;;5069615;28;20048;-64
2021/03/28 11:46:21;;;;;;;4.45;1.40;;;;;;;;;;5075752;28;20044;-64
2021/03/28 11:49:03;;;;;;;5.25;1.35;;;;;;;;;;5070057;28;20053;-64
2021/03/28 11:51:33;;;;;;;5.45;1.50;;;;;;;;;;5072399;28;20044;-64
2021/03/28 11:54:07;;;;;;;6.47;1.60;;;;;;;;;;5073078;28;20059;-64
2021/03/28 11:56:41;;;;;;;4.82;1.45;;;;;;;;;;5077095;28;20770;-64
2021/03/28 11:59:12;;;;;;;6.53;1.80;;;;;;;;;;5077240;28;20051;-64
2021/03/28 12:01:59;;;;;;;4.82;1.40;;;;;;;;;;5079444;28;20177;-64
2021/03/28 12:04:41;;;;;;;5.25;1.50;;;;;;;;;;2498099;28;10022791;-63
2021/03/28 12:07:21;;;;;;;5.97;1.95;;;;;;;;;;3665542;28;10001393;-63
2021/03/28 12:09:51;;;;;;;13.15;1.80;;;;;;;;;;5059733;28;20056;-63
2021/03/28 12:12:26;;;;;;;6.90;1.70;;;;;;;;;;5065103;28;20503;-63
2021/03/28 12:14:54;;;;;;;5.68;1.65;;;;;;;;;;5063728;28;20327;-63
2021/03/28 12:17:29;;;;;;;7.95;1.58;;;;;;;;;;5066085;28;20053;-63
2021/03/28 12:20:01;;;;;;;3.05;1.42;;;;;;;;;;5065814;28;20152;-63
2021/03/28 12:22:29;;;;;;;6.07;1.80;;;;;;;;;;5065065;28;20575;-63
2021/03/28 12:24:59;;;;;;;6.13;2.20;;;;;;;;;;5066633;28;20083;-61
2021/03/28 12:27:39;;;;;;;3.42;1.80;;;;;;;;;;5065687;28;20052;-63
2021/03/28 12:30:22;;;;;;;4.38;1.65;;;;;;;;;;5059806;28;20072;-63
2021/03/28 12:32:54;;;;;;;5.20;1.70;;;;;;;;;;5062306;28;20068;-62
2021/03/28 12:35:40;;;;;;;8.90;3.00;;;;;;;;;;5063348;28;20380;-63
2021/03/28 12:38:27;;;;;;;5.35;2.05;;;;;;;;;;5060420;28;20044;-63
2021/03/28 12:41:09;;;;;;;7.85;1.80;;;;;;;;;;5064908;28;20044;-62
2021/03/28 12:43:40;;;;;;;5.97;2.25;;;;;;;;;;5066240;28;20102;-63
2021/03/28 12:46:22;;;;;;;6.55;1.52;;;;;;;;;;5066998;28;20109;-63
2021/03/28 12:48:49;;;;;;;7.03;2.00;;;;;;;;;;5058562;28;20088;-64
2021/03/28 12:51:21;;;;;;;2.90;1.15;;;;;;;;;;5064975;28;20082;-63
2021/03/28 12:53:50;;;;;;;5.18;2.10;;;;;;;;;;5064726;28;20048;-64
2021/03/28 12:56:20;;;;;;;7.60;1.80;;;;;;;;;;5066681;28;20045;-64
2021/03/28 12:58:53;;;;;;;6.20;1.70;;;;;;;;;;5063833;28;20094;-63
2021/03/28 13:01:27;;;;;;;5.43;1.83;;;;;;;;;;5065937;28;20142;-63
2021/03/28 13:04:05;;;;;;;7.50;1.60;;;;;;;;;;5062386;28;20127;-63
2021/03/28 13:06:35;;;;;;;4.65;1.48;;;;;;;;;;5047413;28;20169;-63
2021/03/28 13:09:04;;;;;;;12.07;2.50;;;;;;;;;;5055949;28;20049;-63
2021/03/28 13:11:40;;;;;;;11.85;2.92;;;;;;;;;;5065187;28;20072;-63
2021/03/28 13:14:23;;;;;;;9.65;2.08;;;;;;;;;;5059551;28;20496;-63
2021/03/28 13:16:55;;;;;;;4.32;1.73;;;;;;;;;;5059081;28;20053;-63
2021/03/28 13:19:24;;;;;;;10.70;1.80;;;;;;;;;;5063764;28;20048;-64
2021/03/28 13:21:57;;;;;;;4.95;1.75;;;;;;;;;;5061759;28;20080;-63
2021/03/28 13:24:24;;;;;;;7.55;1.95;;;;;;;;;;5065496;28;20040;-63
2021/03/28 13:27:00;;;;;;;4.78;1.58;;;;;;;;;;5063592;28;20162;-63
2021/03/28 13:29:36;;;;;;;4.38;1.55;;;;;;;;;;5059869;28;20122;-63
2021/03/28 13:32:05;;;;;;;7.05;1.80;;;;;;;;;;5063377;28;20052;-63
2021/03/28 13:34:38;;;;;;;7.53;2.00;;;;;;;;;;5065163;28;20133;-63
2021/03/28 13:37:08;;;;;;;5.05;1.83;;;;;;;;;;5064496;28;20049;-63
2021/03/28 13:39:36;;;;;;;3.10;1.50;;;;;;;;;;5063890;28;20061;-63
2021/03/28 13:42:06;;;;;;;4.70;1.52;;;;;;;;;;5065571;28;20155;-62
2021/03/28 13:44:49;;;;;;;3.65;1.60;;;;;;;;;;5056461;28;20128;-63
2021/03/28 13:47:17;;;;;;;3.10;1.20;;;;;;;;;;5057811;28;20532;-62
2021/03/28 13:49:47;;;;;;;4.35;1.33;;;;;;;;;;5064285;28;20048;-63
2021/03/28 13:52:22;;;;;;;5.72;1.60;;;;;;;;;;5051335;28;20048;-64
2021/03/28 13:55:03;;;;;;;6.05;1.35;;;;;;;;;;5055693;28;20059;-64
2021/03/28 13:57:32;;;;;;;7.53;1.92;;;;;;;;;;5062221;28;20128;-64
2021/03/28 14:00:02;;;;;;;4.65;1.83;;;;;;;;;;5060587;28;20158;-64
2021/03/28 14:02:31;;;;;;;5.65;1.85;;;;;;;;;;5060688;28;20140;-63
2021/03/28 14:05:00;;;;;;;6.45;1.92;;;;;;;;;;5050420;28;20063;-63
2021/03/28 14:07:29;;;;;;;8.68;1.98;;;;;;;;;;5058946;28;20045;-63
2021/03/28 14:09:59;;;;;;;9.32;1.85;;;;;;;;;;5061277;28;20076;-63
2021/03/28 14:12:33;;;;;;;4.50;1.50;;;;;;;;;;5054524;28;20735;-63
2021/03/28 14:15:23;;;;;;;4.63;1.83;;;;;;;;;;5055509;28;20106;-64
2021/03/28 14:17:57;;;;;;;4.57;1.58;;;;;;;;;;5052792;28;20056;-63
2021/03/28 14:20:27;;;;;;;5.68;1.90;;;;;;;;;;5063393;28;20139;-63
2021/03/28 14:22:57;;;;;;;4.47;1.40;;;;;;;;;;5063099;28;20149;-63
2021/03/28 14:25:31;;;;;;;4.90;2.00;;;;;;;;;;5049874;28;20139;-63
2021/03/28 14:27:58;;;;;;;4.85;1.50;;;;;;;;;;5051585;28;20118;-63
2021/03/28 14:30:32;;;;;;;4.78;1.77;;;;;;;;;;5053393;28;20049;-63
2021/03/28 14:33:03;;;;;;;6.55;1.88;;;;;;;;;;5061179;28;20083;-63
2021/03/28 14:35:45;;;;;;;3.97;1.30;;;;;;;;;;5062869;28;20568;-63
2021/03/28 14:38:37;;;;;;;5.25;1.73;;;;;;;;;;5057355;28;20288;-63
2021/03/28 14:41:12;;;;;;;5.47;2.00;;;;;;;;;;5046523;28;20107;-63
2021/03/28 14:43:57;;;;;;;4.75;1.75;;;;;;;;;;5059640;28;20803;-63
2021/03/28 14:46:36;;;;;;;6.40;1.73;;;;;;;;;;5060480;28;20352;-63
2021/03/28 14:49:05;;;;;;;5.57;1.60;;;;;;;;;;5050928;28;20048;-63
2021/03/28 14:51:39;;;;;;;5.32;1.67;;;;;;;;;;5057667;28;20037;-63
2021/03/28 14:54:11;;;;;;;5.45;1.58;;;;;;;;;;5062680;28;20084;-63
2021/03/28 14:56:53;;;;;;;5.05;1.55;;;;;;;;;;5063161;28;20054;-64
2021/03/28 14:59:51;;;;;;;6.10;2.03;;;;;;;;;;5051816;28;20057;-63
2021/03/28 15:02:33;;;;;;;5.95;1.90;;;;;;;;;;5061234;28;20321;-63
2021/03/28 15:05:09;;;;;;;11.05;2.30;;;;;;;;;;5057560;28;20156;-64
2021/03/28 15:07:57;;;;;;;6.47;2.17;;;;;;;;;;5063673;28;20084;-63
2021/03/28 15:10:29;;;;;;;4.70;2.08;;;;;;;;;;5049115;28;20052;-64
2021/03/28 15:13:01;;;;;;;4.30;1.65;;;;;;;;;;5061979;28;20092;-63
2021/03/28 15:15:32;;;;;;;7.00;1.98;;;;;;;;;;5055786;28;20474;-63
2021/03/28 15:18:06;;;;;;;5.32;1.85;;;;;;;;;;5057383;28;20550;-63
2021/03/28 15:20:38;;;;;;;4.47;1.60;;;;;;;;;;5061158;28;20047;-63
2021/03/28 15:23:08;;;;;;;4.05;1.70;;;;;;;;;;5075600;28;20106;-64
2021/03/28 15:25:37;;;;;;;4.97;2.13;;;;;;;;;;5065131;28;20064;-64
2021/03/28 15:28:07;;;;;;;4.00;1.65;;;;;;;;;;5047749;28;20044;-62
2021/03/28 15:30:36;;;;;;;3.17;1.40;;;;;;;;;;5059061;28;20068;-62
2021/03/28 15:33:19;;;;;;;7.18;1.60;;;;;;;;;;5066729;28;20479;-63
2021/03/28 15:35:50;;;;;;;4.50;1.60;;;;;;;;;;5057344;28;20144;-63
2021/03/28 15:38:22;;;;;;;6.05;1.65;;;;;;;;;;5055190;28;20124;-62
2021/03/28 15:40:55;;;;;;;6.63;1.75;;;;;;;;;;5065054;28;20080;-63
2021/03/28 15:43:37;;;;;;;5.68;1.67;;;;;;;;;;5065290;28;20044;-63
2021/03/28 15:46:17;;;;;;;5.45;1.67;;;;;;;;;;5059105;28;20076;-63
2021/03/28 15:48:58;;;;;;;4.15;1.42;;;;;;;;;;5058974;28;20086;-63